Погода Витынена 2 недели

Подляское воеводство, Польша

16 - 29 июля
  • 16июля
    Сегодня
    +20°
    +33°
    Практически безоблачно
    ВремяПогодаТемператураВлажностьДавлениеВетер, м/сВероятность осадков
    02:00Небольшая облачность+18°C84 %750 мм2.1 м/с2 %
    05:00Практически безоблачно+17°C85 %751 мм2.1 м/с2 %
    08:00Ясно и безоблачно+24°C74 %751 мм2.8 м/с2 %
    11:00Практически безоблачно+29°C47 %750 мм4.4 м/с2 %
    14:00Практически безоблачно+32°C36 %749 мм5.1 м/с3 %
    17:00Облачно с прояснениями+32°C40 %749 мм4.5 м/с22 %
    20:00Облачно с прояснениями, ливень+24°C89 %748 мм3.8 м/с79 %
    23:00Облачно с прояснениями+22°C95 %748 мм2.7 м/с26 %
  • 17июля
    Среда
    +16°
    +29°
    Ясно и безоблачно
    ВремяПогодаТемператураВлажностьДавлениеВетер, м/сВероятность осадков
    02:00Пасмурно, ливень+21°C97 %749 мм0.3 м/с47 %
    05:00Небольшая облачность+20°C96 %749 мм2.2 м/с18 %
    08:00Ясно и безоблачно+22°C82 %751 мм3.3 м/с2 %
    11:00Ясно и безоблачно+26°C53 %752 мм3.2 м/с2 %
    14:00Ясно и безоблачно+28°C39 %752 мм4.5 м/с2 %
    17:00Облачно с прояснениями+28°C39 %752 мм4.2 м/с3 %
    20:00Практически безоблачно+25°C55 %752 мм1.6 м/с2 %
    23:00Облачно с прояснениями+21°C61 %753 мм2.6 м/с3 %
  • 18июля
    Четверг
    +13°
    +26°
    Практически безоблачно
    ВремяПогодаТемператураВлажностьДавлениеВетер, м/сВероятность осадков
    02:00Практически безоблачно+18°C81 %753 мм1.2 м/с7 %
    05:00Ясно и безоблачно+17°C93 %753 мм1.8 м/с10 %
    08:00Ясно и безоблачно+21°C74 %754 мм1.3 м/с7 %
    11:00Ясно и безоблачно+24°C55 %754 мм2.9 м/с40 %
    14:00Практически безоблачно+26°C43 %753 мм4.3 м/с27 %
    17:00Небольшая облачность+25°C44 %753 мм4.6 м/с8 %
    20:00Ясно и безоблачно+23°C52 %754 мм3.3 м/с2 %
    23:00Ясно и безоблачно+17°C73 %754 мм2.4 м/с2 %
  • 19июля
    Пятница
    +11°
    +24°
    Небольшая облачность
    ВремяПогодаТемператураВлажностьДавлениеВетер, м/сВероятность осадков
    02:00Практически безоблачно+15°C84 %754 мм2.3 м/с2 %
    05:00Облачно с прояснениями+13°C91 %754 мм2.1 м/с2 %
    08:00Облачно с прояснениями+19°C69 %754 мм2.9 м/с2 %
    11:00Облачно с прояснениями+22°C55 %754 мм3.7 м/с2 %
    14:00Небольшая облачность+23°C47 %753 мм4.1 м/с2 %
    17:00Ясно и безоблачно+24°C43 %752 мм4.6 м/с2 %
    20:00Ясно и безоблачно+21°C51 %752 мм2.9 м/с2 %
    23:00Ясно и безоблачно+16°C72 %752 мм2.4 м/с2 %
  • 20июля
    Суббота
    +13°
    +26°
    Небольшая облачность
    ВремяПогодаТемператураВлажностьДавлениеВетер, м/сВероятность осадков
    02:00Ясно и безоблачно+13°C90 %752 мм2.4 м/с2 %
    05:00Практически безоблачно+12°C97 %752 мм1.6 м/с2 %
    08:00Небольшая облачность+18°C73 %752 мм3.2 м/с2 %
    11:00Ясно и безоблачно+22°C54 %751 мм2.1 м/с2 %
    14:00Небольшая облачность+25°C40 %751 мм2.1 м/с7 %
    17:00Облачно с прояснениями+25°C39 %750 мм2.9 м/с8 %
    20:00Небольшая облачность+23°C50 %750 мм2.3 м/с2 %
    23:00Ясно и безоблачно+18°C72 %750 мм2.7 м/с2 %
Мы используем cookies
Соглашаюсь